Time;durP1;ratioP1;P1;durP2;ratioP2;P2;SDS_P1;SDS_P2;PMS_P1;PMS_P2;Temp;Humidity;BMP_temperature;BMP_pressure;BME280_temperature;BME280_humidity;BME280_pressure;Samples;Min_cycle;Max_cycle;Signal;HPM_P1;HPM_P2
2023/09/27 00:00:19;;;;;;;0.30;0.30;;;;;;;14.10;100.00;100508.53;5081917;28;20040;-58
2023/09/27 00:02:44;;;;;;;0.30;0.30;;;;;;;14.04;100.00;100504.28;5070468;28;20036;-59
2023/09/27 00:05:11;;;;;;;0.40;0.40;;;;;;;14.05;100.00;100521.19;5070144;28;20021;-59
2023/09/27 00:07:37;;;;;;;0.30;0.30;;;;;;;14.03;100.00;100520.38;5089724;28;20371;-59
2023/09/27 00:10:09;;;;;;;0.30;0.30;;;;;;;14.01;100.00;100524.91;5088144;28;20135;-59
2023/09/27 00:12:35;;;;;;;0.40;0.40;;;;;;;14.01;100.00;100535.59;5070227;28;20024;-58
2023/09/27 00:15:01;;;;;;;0.30;0.30;;;;;;;14.02;100.00;100537.38;5064745;28;20035;-59
2023/09/27 00:17:28;;;;;;;0.35;0.35;;;;;;;14.00;100.00;100539.22;5051531;28;20028;-59
2023/09/27 00:19:54;;;;;;;0.30;0.30;;;;;;;13.97;100.00;100537.53;5051093;28;20431;-59
2023/09/27 00:22:19;;;;;;;0.38;0.38;;;;;;;14.00;100.00;100544.56;5052937;28;20037;-59
2023/09/27 00:24:45;;;;;;;0.30;0.30;;;;;;;13.94;100.00;100544.78;5050932;28;20735;-58
2023/09/27 00:27:13;;;;;;;0.40;0.40;;;;;;;13.91;100.00;100550.25;5053554;28;20040;-58
2023/09/27 00:29:38;;;;;;;0.40;0.40;;;;;;;13.90;100.00;100536.03;5050869;28;20392;-58
2023/09/27 00:32:04;;;;;;;0.30;0.30;;;;;;;13.86;100.00;100530.84;5078123;28;20020;-59
2023/09/27 00:34:29;;;;;;;0.40;0.40;;;;;;;13.85;100.00;100529.09;5087027;28;20119;-58
2023/09/27 00:36:55;;;;;;;0.40;0.40;;;;;;;13.88;100.00;100529.00;5073450;28;20036;-59
2023/09/27 00:39:20;;;;;;;0.30;0.30;;;;;;;13.89;100.00;100520.03;5066063;28;20028;-58
2023/09/27 00:41:46;;;;;;;0.32;0.32;;;;;;;13.91;100.00;100526.19;5071501;28;20035;-59
2023/09/27 00:44:11;;;;;;;0.40;0.40;;;;;;;13.99;100.00;100526.75;5054482;28;20395;-59
2023/09/27 00:46:38;;;;;;;0.40;0.40;;;;;;;14.00;100.00;100528.53;5033824;28;20043;-59
2023/09/27 00:49:04;;;;;;;0.38;0.38;;;;;;;14.01;100.00;100531.16;5063496;28;20020;-59
2023/09/27 00:51:30;;;;;;;0.30;0.30;;;;;;;14.04;100.00;100517.66;5061197;28;20044;-58
2023/09/27 00:53:56;;;;;;;0.32;0.32;;;;;;;14.04;100.00;100509.63;5050448;28;20442;-58
2023/09/27 00:56:23;;;;;;;0.35;0.35;;;;;;;14.09;100.00;100521.00;5067221;28;20553;-59
2023/09/27 00:58:52;;;;;;;0.30;0.30;;;;;;;14.13;100.00;100522.66;5067969;28;20032;-59
2023/09/27 01:01:18;;;;;;;0.30;0.30;;;;;;;14.14;100.00;100532.41;5069955;28;20048;-58
2023/09/27 01:03:44;;;;;;;0.30;0.30;;;;;;;14.13;100.00;100529.78;5061191;28;20640;-58
2023/09/27 01:06:11;;;;;;;0.38;0.38;;;;;;;14.07;100.00;100530.91;5050367;28;20061;-59
2023/09/27 01:08:37;;;;;;;0.32;0.32;;;;;;;14.03;100.00;100523.94;5050431;28;20052;-59
2023/09/27 01:11:04;;;;;;;0.40;0.40;;;;;;;13.93;100.00;100530.56;5072944;28;20090;-59
2023/09/27 01:13:29;;;;;;;0.30;0.30;;;;;;;13.75;100.00;100509.00;5073917;28;20040;-58
2023/09/27 01:15:55;;;;;;;0.30;0.30;;;;;;;13.82;100.00;100530.06;5071678;28;20039;-58
2023/09/27 01:18:20;;;;;;;0.40;0.40;;;;;;;13.79;100.00;100530.19;5069153;28;20028;-59
2023/09/27 01:20:46;;;;;;;0.30;0.30;;;;;;;13.75;100.00;100543.75;5070255;28;20032;-58
2023/09/27 01:23:11;;;;;;;0.38;0.38;;;;;;;13.70;100.00;100548.38;5068068;28;20032;-58
2023/09/27 01:25:38;;;;;;;0.40;0.40;;;;;;;13.53;100.00;100549.00;5078753;28;20375;-59
2023/09/27 01:28:06;;;;;;;0.30;0.30;;;;;;;13.42;100.00;100527.16;5088514;28;20028;-61
2023/09/27 01:30:34;;;;;;;0.40;0.40;;;;;;;13.42;100.00;100512.91;5075091;28;20332;-61
2023/09/27 01:33:10;;;;;;;0.40;0.40;;;;;;;13.44;100.00;100513.72;5086820;28;20047;-61
2023/09/27 01:35:41;;;;;;;0.40;0.40;;;;;;;13.46;100.00;100514.56;5077251;28;20036;-61
2023/09/27 01:38:08;;;;;;;0.30;0.30;;;;;;;13.44;100.00;100517.28;5067591;28;20040;-61
2023/09/27 01:40:41;;;;;;;0.40;0.40;;;;;;;13.44;100.00;100511.06;5075265;28;20070;-61
2023/09/27 01:43:07;;;;;;;0.40;0.40;;;;;;;13.41;100.00;100505.81;5088197;28;20064;-61
2023/09/27 01:45:33;;;;;;;0.50;0.50;;;;;;;13.37;100.00;100517.53;5083847;28;20036;-61
2023/09/27 01:48:00;;;;;;;0.40;0.40;;;;;;;13.35;100.00;100516.72;5068397;28;20124;-61
2023/09/27 01:50:27;;;;;;;0.40;0.40;;;;;;;13.32;100.00;100517.72;5069845;28;20060;-61
2023/09/27 01:52:54;;;;;;;0.40;0.40;;;;;;;13.24;100.00;100517.97;5087476;28;20028;-61
2023/09/27 01:55:20;;;;;;;0.40;0.40;;;;;;;13.24;100.00;100525.97;5089196;28;20081;-61
2023/09/27 01:57:46;;;;;;;0.30;0.30;;;;;;;13.23;100.00;100517.16;5089701;28;20034;-62
2023/09/27 02:00:14;;;;;;;0.30;0.30;;;;;;;13.19;100.00;100522.59;5084347;28;20118;-61
2023/09/27 02:03:03;;;;;;;0.40;0.40;;;;;;;13.15;100.00;100515.63;5069087;28;20492;-62
2023/09/27 02:05:30;;;;;;;0.40;0.40;;;;;;;13.13;100.00;100512.13;5069880;28;20028;-61
2023/09/27 02:07:56;;;;;;;0.40;0.40;;;;;;;13.09;100.00;100512.31;5070049;28;20048;-61
2023/09/27 02:10:21;;;;;;;0.35;0.35;;;;;;;13.05;100.00;100514.22;5072864;28;20168;-62
2023/09/27 02:12:47;;;;;;;0.40;0.40;;;;;;;13.00;100.00;100500.09;5085857;28;20055;-61
2023/09/27 02:15:14;;;;;;;0.30;0.30;;;;;;;13.00;100.00;100500.09;5089337;28;20042;-61
2023/09/27 02:17:40;;;;;;;0.40;0.40;;;;;;;12.99;100.00;100494.81;5087274;28;20025;-61
2023/09/27 02:20:07;;;;;;;0.30;0.30;;;;;;;12.95;100.00;100499.38;5068987;28;20032;-61
2023/09/27 02:22:42;;;;;;;0.40;0.40;;;;;;;12.92;100.00;100486.16;5069170;28;20040;-62
2023/09/27 02:25:09;;;;;;;0.40;0.40;;;;;;;12.93;100.00;100479.03;5069146;28;20024;-61
2023/09/27 02:27:35;;;;;;;0.40;0.40;;;;;;;12.90;100.00;100479.97;5080373;28;20049;-61
2023/09/27 02:30:02;;;;;;;0.40;0.40;;;;;;;12.88;100.00;100479.16;5088799;28;20149;-61
2023/09/27 02:32:27;;;;;;;0.40;0.40;;;;;;;12.90;100.00;100481.78;5085571;28;20024;-62
2023/09/27 02:34:52;;;;;;;0.40;0.40;;;;;;;12.91;100.00;100488.88;5088046;28;20027;-62
2023/09/27 02:37:18;;;;;;;0.40;0.40;;;;;;;12.84;100.00;100504.25;5086914;28;20028;-62
2023/09/27 02:39:43;;;;;;;0.40;0.40;;;;;;;12.75;100.00;100509.88;5070602;28;20021;-59
2023/09/27 02:42:12;;;;;;;0.40;0.40;;;;;;;12.62;100.00;100511.19;5087274;28;20120;-58
2023/09/27 02:44:38;;;;;;;0.50;0.50;;;;;;;12.52;100.00;100512.44;5080554;28;20081;-59
2023/09/27 02:47:04;;;;;;;0.40;0.40;;;;;;;12.41;100.00;100511.03;5075152;28;20032;-59
2023/09/27 02:49:32;;;;;;;0.40;0.40;;;;;;;12.37;100.00;100517.41;5082229;28;20032;-59
2023/09/27 02:51:58;;;;;;;0.40;0.40;;;;;;;12.34;100.00;100522.84;5092484;28;20028;-59
2023/09/27 02:54:23;;;;;;;0.47;0.47;;;;;;;12.32;100.00;100527.34;5093159;28;20020;-59
2023/09/27 02:56:48;;;;;;;0.50;0.50;;;;;;;12.30;100.00;100532.72;5080510;28;20477;-59
2023/09/27 02:59:14;;;;;;;0.45;0.45;;;;;;;12.33;100.00;100527.28;5072775;28;20059;-59
2023/09/27 03:01:40;;;;;;;0.40;0.40;;;;;;;12.32;100.00;100536.19;5073696;28;20507;-59
2023/09/27 03:04:15;;;;;;;0.40;0.40;;;;;;;12.27;100.00;100526.59;5074167;28;20051;-59
2023/09/27 03:06:44;;;;;;;0.40;0.40;;;;;;;12.18;100.00;100516.22;5071861;28;20112;-59
2023/09/27 03:09:11;;;;;;;0.43;0.43;;;;;;;12.30;100.00;100543.41;5071364;28;20094;-59
2023/09/27 03:11:38;;;;;;;0.40;0.40;;;;;;;12.37;100.00;100547.59;5066783;28;20041;-59
2023/09/27 03:14:04;;;;;;;0.50;0.50;;;;;;;12.43;100.00;100549.22;5071327;28;20646;-58
2023/09/27 03:16:29;;;;;;;0.50;0.50;;;;;;;12.44;100.00;100557.16;5074732;28;20032;-58
2023/09/27 03:18:55;;;;;;;0.40;0.40;;;;;;;12.48;100.00;100550.81;5072464;28;20059;-58
2023/09/27 03:21:21;;;;;;;0.50;0.50;;;;;;;12.56;100.00;100551.44;5072454;28;20028;-59
2023/09/27 03:23:47;;;;;;;0.40;0.40;;;;;;;12.62;100.00;100555.72;5089327;28;20087;-58
2023/09/27 03:26:12;;;;;;;0.40;0.40;;;;;;;12.65;100.00;100548.47;5091750;28;20034;-59
2023/09/27 03:28:38;;;;;;;0.40;0.40;;;;;;;12.68;100.00;100551.06;5090762;28;20028;-59
2023/09/27 03:31:05;;;;;;;0.40;0.40;;;;;;;12.76;100.00;100548.13;5088757;28;20081;-59
2023/09/27 03:33:31;;;;;;;0.50;0.50;;;;;;;12.80;100.00;100549.78;5091263;28;20024;-58
2023/09/27 03:35:57;;;;;;;0.40;0.40;;;;;;;12.85;100.00;100546.00;5091289;28;20035;-59
2023/09/27 03:38:22;;;;;;;0.40;0.40;;;;;;;12.87;100.00;100546.84;5091303;28;20099;-58
2023/09/27 03:40:51;;;;;;;0.45;0.45;;;;;;;12.96;100.00;100548.34;5084341;28;20107;-59
2023/09/27 03:43:17;;;;;;;0.40;0.40;;;;;;;12.88;100.00;100543.22;5071765;28;20521;-59
2023/09/27 03:45:42;;;;;;;0.40;0.40;;;;;;;12.90;100.00;100560.09;5084677;28;20062;-59
2023/09/27 03:48:07;;;;;;;0.40;0.40;;;;;;;12.89;100.00;100566.38;5072002;28;20123;-59
2023/09/27 03:50:33;;;;;;;0.40;0.40;;;;;;;12.89;100.00;100571.69;5076173;28;20034;-59
2023/09/27 03:52:58;;;;;;;0.50;0.50;;;;;;;12.87;100.00;100573.53;5078781;28;20117;-59
2023/09/27 03:55:25;;;;;;;0.50;0.50;;;;;;;12.80;100.00;100572.00;5081432;28;20023;-59
2023/09/27 03:57:51;;;;;;;0.40;0.40;;;;;;;12.81;100.00;100576.44;5091855;28;20028;-59
2023/09/27 04:00:17;;;;;;;0.50;0.50;;;;;;;12.83;100.00;100587.91;5091914;28;20024;-59
2023/09/27 04:02:44;;;;;;;0.40;0.40;;;;;;;12.84;100.00;100575.44;5074222;28;20040;-59
2023/09/27 04:05:11;;;;;;;0.40;0.40;;;;;;;12.83;100.00;100579.88;5071894;28;20112;-59
2023/09/27 04:07:36;;;;;;;0.50;0.50;;;;;;;12.71;100.00;100553.63;5085075;28;20099;-59
2023/09/27 04:10:06;;;;;;;0.40;0.40;;;;;;;12.85;100.00;100575.38;5083922;28;20808;-59
2023/09/27 04:12:31;;;;;;;0.40;0.40;;;;;;;12.78;100.00;100563.16;5051284;28;20021;-59
2023/09/27 04:14:57;;;;;;;0.45;0.45;;;;;;;12.81;100.00;100578.22;5051556;28;20044;-59
2023/09/27 04:17:22;;;;;;;0.40;0.40;;;;;;;12.77;100.00;100580.09;5053620;28;20036;-59
2023/09/27 04:19:51;;;;;;;0.45;0.45;;;;;;;12.73;100.00;100585.59;5051349;28;20044;-59
2023/09/27 04:22:17;;;;;;;0.40;0.40;;;;;;;12.77;100.00;100592.56;5054631;28;20059;-59
2023/09/27 04:24:42;;;;;;;0.40;0.40;;;;;;;12.71;100.00;100600.78;5068401;28;20927;-59
2023/09/27 04:27:08;;;;;;;0.43;0.43;;;;;;;12.67;100.00;100597.34;5051281;28;20032;-59
2023/09/27 04:29:33;;;;;;;0.40;0.40;;;;;;;12.62;100.00;100596.59;5050095;28;20021;-59
2023/09/27 04:31:59;;;;;;;0.50;0.50;;;;;;;12.57;100.00;100595.88;5052049;28;20078;-59
2023/09/27 04:34:24;;;;;;;0.40;0.40;;;;;;;12.52;100.00;100581.81;5049346;28;20021;-59
2023/09/27 04:36:53;;;;;;;0.40;0.40;;;;;;;12.49;100.00;100581.91;5052095;28;20032;-59
2023/09/27 04:39:19;;;;;;;0.40;0.40;;;;;;;12.45;100.00;100574.94;5055841;28;20032;-59
2023/09/27 04:41:46;;;;;;;0.30;0.30;;;;;;;12.44;100.00;100573.16;5068946;28;20079;-59
2023/09/27 04:44:15;;;;;;;0.50;0.50;;;;;;;12.43;100.00;100571.44;5069043;28;20080;-59
2023/09/27 04:46:41;;;;;;;0.50;0.50;;;;;;;12.43;100.00;100582.09;5067026;28;20043;-59
2023/09/27 04:49:07;;;;;;;0.50;0.50;;;;;;;12.43;100.00;100579.44;5069563;28;20040;-59
2023/09/27 04:51:33;;;;;;;0.50;0.50;;;;;;;12.39;100.00;100580.44;5051181;28;20159;-59
2023/09/27 04:54:03;;;;;;;0.50;0.50;;;;;;;12.33;100.00;100585.97;5050247;28;20104;-59
2023/09/27 04:56:30;;;;;;;0.50;0.50;;;;;;;12.23;100.00;100567.63;5068160;28;20040;-58
2023/09/27 04:59:01;;;;;;;0.50;0.50;;;;;;;12.24;100.00;100586.25;5057936;28;20025;-58
2023/09/27 05:01:26;;;;;;;0.50;0.50;;;;;;;12.21;100.00;100580.16;5057740;28;20472;-59
2023/09/27 05:03:52;;;;;;;0.50;0.50;;;;;;;12.18;100.00;100578.44;5069259;28;20033;-59
2023/09/27 05:06:17;;;;;;;0.50;0.50;;;;;;;12.15;100.00;100585.66;5069343;28;20043;-59
2023/09/27 05:08:42;;;;;;;0.50;0.50;;;;;;;12.11;100.00;100579.53;5069006;28;20024;-59
2023/09/27 05:11:08;;;;;;;0.50;0.50;;;;;;;12.07;100.00;100580.56;5071599;28;20439;-59
2023/09/27 05:13:33;;;;;;;0.50;0.50;;;;;;;12.06;100.00;100576.13;5068779;28;20123;-59
2023/09/27 05:15:59;;;;;;;0.50;0.50;;;;;;;12.00;100.00;100584.31;5070974;28;20032;-59
2023/09/27 05:18:25;;;;;;;0.47;0.47;;;;;;;11.99;100.00;100584.38;5075765;28;20042;-59
2023/09/27 05:20:50;;;;;;;0.50;0.50;;;;;;;11.95;100.00;100583.56;5088525;28;20028;-59
2023/09/27 05:23:16;;;;;;;0.50;0.50;;;;;;;11.93;100.00;100580.06;5087271;28;20020;-59
2023/09/27 05:25:41;;;;;;;0.40;0.40;;;;;;;11.88;100.00;100582.00;5086011;28;20024;-59
2023/09/27 05:28:07;;;;;;;0.50;0.50;;;;;;;11.81;100.00;100581.28;5088449;28;20038;-59
2023/09/27 05:30:33;;;;;;;0.50;0.50;;;;;;;11.76;100.00;100588.53;5088909;28;20052;-59
2023/09/27 05:32:58;;;;;;;0.50;0.50;;;;;;;11.77;100.00;100589.44;5086299;28;20020;-59
2023/09/27 05:35:24;;;;;;;0.50;0.50;;;;;;;11.80;100.00;100589.34;5078609;28;20020;-59
2023/09/27 05:37:50;;;;;;;0.50;0.50;;;;;;;11.80;100.00;100586.66;5089697;28;20125;-59
2023/09/27 05:40:15;;;;;;;0.50;0.50;;;;;;;11.84;100.00;100585.69;5085830;28;20036;-59
2023/09/27 05:42:41;;;;;;;0.50;0.50;;;;;;;11.86;100.00;100589.19;5089703;28;20085;-59
2023/09/27 05:45:11;;;;;;;0.50;0.50;;;;;;;11.92;100.00;100589.00;5083464;28;20434;-59
2023/09/27 05:47:38;;;;;;;0.50;0.50;;;;;;;11.94;100.00;100592.50;5069293;28;20116;-59
2023/09/27 05:50:08;;;;;;;0.50;0.50;;;;;;;11.99;100.00;100595.03;5069497;28;20024;-58
2023/09/27 05:52:37;;;;;;;0.50;0.50;;;;;;;12.00;100.00;100597.66;5086231;28;20020;-58
2023/09/27 05:55:05;;;;;;;0.50;0.50;;;;;;;11.99;100.00;100595.91;5089282;28;20062;-58
2023/09/27 05:57:31;;;;;;;0.50;0.50;;;;;;;12.05;100.00;100605.50;5089234;28;20432;-59
2023/09/27 05:59:58;;;;;;;0.50;0.50;;;;;;;12.09;100.00;100601.84;5086847;28;20048;-59
2023/09/27 06:02:30;;;;;;;0.50;0.50;;;;;;;12.13;100.00;100599.03;5087193;28;20051;-59
2023/09/27 06:04:56;;;;;;;0.50;0.50;;;;;;;12.23;100.00;100600.50;5089089;28;20057;-59
2023/09/27 06:07:22;;;;;;;0.50;0.50;;;;;;;12.35;100.00;100604.59;5075489;28;20569;-59
2023/09/27 06:09:48;;;;;;;0.50;0.50;;;;;;;12.41;100.00;100594.63;5078256;28;20411;-62
2023/09/27 06:12:14;;;;;;;0.50;0.50;;;;;;;12.49;100.00;100597.91;5061983;28;20024;-62
2023/09/27 06:14:42;;;;;;;0.50;0.50;;;;;;;12.61;100.00;100597.53;5047868;28;20058;-61
2023/09/27 06:17:08;;;;;;;0.50;0.50;;;;;;;12.83;100.00;100595.91;5047863;28;20070;-62
2023/09/27 06:19:34;;;;;;;0.50;0.50;;;;;;;13.14;100.00;100594.03;5053433;28;20446;-62
2023/09/27 06:21:59;;;;;;;0.40;0.40;;;;;;;14.07;100.00;100597.78;5063438;28;20044;-62
2023/09/27 06:24:28;;;;;;;0.40;0.40;;;;;;;15.54;100.00;100596.25;5060719;28;20029;-61
2023/09/27 06:26:54;;;;;;;0.40;0.40;;;;;;;17.23;100.00;100592.72;5067200;28;20071;-62
2023/09/27 06:29:20;;;;;;;0.30;0.30;;;;;;;18.75;99.39;100600.59;5067699;28;20024;-61
2023/09/27 06:31:52;;;;;;;0.30;0.30;;;;;;;20.03;83.89;100596.47;5055979;28;20504;-61
2023/09/27 06:34:18;;;;;;;0.30;0.30;;;;;;;21.36;71.56;100599.50;5047949;28;20814;-61
2023/09/27 06:36:44;;;;;;;0.30;0.30;;;;;;;22.62;63.63;100600.50;5056054;28;20120;-62
2023/09/27 06:39:16;;;;;;;0.20;0.20;;;;;;;23.66;58.02;100584.44;5068282;28;20590;-62
2023/09/27 06:41:44;;;;;;;0.30;0.30;;;;;;;24.50;53.53;100594.00;5067631;28;20028;-61
2023/09/27 06:44:10;;;;;;;0.20;0.20;;;;;;;25.15;52.12;100604.09;5068772;28;20044;-62
2023/09/27 06:46:36;;;;;;;0.20;0.20;;;;;;;25.87;49.74;100604.19;5046003;28;20028;-61
2023/09/27 06:49:03;;;;;;;0.20;0.20;;;;;;;26.45;47.83;100607.28;5068504;28;20029;-61
2023/09/27 06:51:29;;;;;;;0.20;0.20;;;;;;;26.81;46.39;100604.03;5064689;28;20777;-61
2023/09/27 06:53:55;;;;;;;0.20;0.20;;;;;;;26.98;44.92;100606.09;5068641;28;20085;-61
2023/09/27 06:56:20;;;;;;;0.20;0.20;;;;;;;27.08;44.81;100601.53;5067366;28;20069;-61
2023/09/27 06:58:46;;;;;;;0.20;0.20;;;;;;;27.46;44.72;100596.16;5066236;28;20036;-61
2023/09/27 07:01:13;;;;;;;0.20;0.20;;;;;;;27.98;44.40;100592.13;5068633;28;20029;-61
2023/09/27 07:03:40;;;;;;;0.10;0.10;;;;;;;28.45;43.49;100591.97;5066586;28;20025;-61
2023/09/27 07:06:05;;;;;;;0.20;0.20;;;;;;;28.80;43.20;100596.75;5048545;28;20104;-61
2023/09/27 07:08:31;;;;;;;0.20;0.20;;;;;;;29.15;42.28;100609.72;5050665;28;20040;-61
2023/09/27 07:11:08;;;;;;;0.15;0.15;;;;;;;29.23;41.39;100598.84;5080486;28;20126;-61
2023/09/27 07:13:34;;;;;;;0.10;0.10;;;;;;;28.77;42.20;100596.19;5071061;28;20051;-61
2023/09/27 07:16:02;;;;;;;0.10;0.10;;;;;;;28.61;42.35;100585.03;5069914;28;20039;-61
2023/09/27 07:18:27;;;;;;;0.10;0.10;;;;;;;28.73;42.87;100584.69;5068351;28;20028;-58
2023/09/27 07:20:53;;;;;;;0.10;0.10;;;;;;;28.93;43.05;100590.94;5078227;28;20053;-58
2023/09/27 07:23:20;;;;;;;0.10;0.10;;;;;;;29.04;41.70;100588.00;5086364;28;20032;-58
2023/09/27 07:25:47;;;;;;;0.20;0.20;;;;;;;29.21;42.33;100589.94;5088588;28;20065;-58
2023/09/27 07:28:13;;;;;;;0.10;0.10;;;;;;;29.37;41.65;100595.59;5078959;28;20032;-58
2023/09/27 07:30:39;;;;;;;0.10;0.10;;;;;;;29.44;41.62;100592.06;5068793;28;20020;-58
2023/09/27 07:33:11;;;;;;;0.10;0.10;;;;;;;29.58;41.54;100593.41;5085828;28;20112;-58
2023/09/27 07:35:42;;;;;;;0.10;0.10;;;;;;;29.59;41.10;100595.09;5085593;28;20698;-58
2023/09/27 07:38:08;;;;;;;0.10;0.10;;;;;;;29.54;40.94;100602.94;5071866;28;20048;-58
2023/09/27 07:40:34;;;;;;;0.10;0.10;;;;;;;29.31;41.82;100594.31;5076577;28;20031;-59
2023/09/27 07:42:59;;;;;;;0.10;0.10;;;;;;;29.10;42.11;100601.09;5078997;28;20029;-58
2023/09/27 07:45:30;;;;;;;0.10;0.10;;;;;;;29.18;42.70;100595.72;5085504;28;20612;-58
2023/09/27 07:47:56;;;;;;;0.10;0.10;;;;;;;28.67;43.05;100590.78;5083191;28;20027;-58
2023/09/27 07:50:27;;;;;;;0.10;0.10;;;;;;;28.34;44.16;100589.44;5074208;28;20124;-58
2023/09/27 07:52:57;;;;;;;0.10;0.10;;;;;;;28.32;43.71;100588.72;5074064;28;20023;-58
2023/09/27 07:55:23;;;;;;;0.10;0.10;;;;;;;28.08;45.10;100585.63;5077806;28;20434;-58
2023/09/27 07:57:49;;;;;;;0.10;0.10;;;;;;;27.62;45.70;100585.50;5070673;28;20033;-58
2023/09/27 08:00:19;;;;;;;0.10;0.10;;;;;;;27.78;45.29;100590.38;5081964;28;20050;-58
2023/09/27 08:02:45;;;;;;;0.10;0.10;;;;;;;27.74;45.61;100589.78;5088118;28;20111;-58
2023/09/27 08:05:14;;;;;;;0.10;0.10;;;;;;;27.56;46.23;100586.06;5089672;28;20838;-58
2023/09/27 08:07:40;;;;;;;0.10;0.10;;;;;;;27.69;47.15;100591.25;5075935;28;20337;-58
2023/09/27 08:10:06;;;;;;;0.10;0.10;;;;;;;27.49;46.45;100584.94;5071102;28;20146;-58
2023/09/27 08:12:33;;;;;;;0.10;0.10;;;;;;;27.41;46.28;100590.25;5090666;28;20103;-58
2023/09/27 08:15:03;;;;;;;0.10;0.10;;;;;;;26.89;47.13;100590.53;5086539;28;20046;-58
2023/09/27 08:17:30;;;;;;;0.10;0.10;;;;;;;26.59;48.41;100587.84;5090508;28;20020;-58
2023/09/27 08:19:55;;;;;;;0.10;0.10;;;;;;;26.93;50.24;100586.53;5091385;28;20038;-58
2023/09/27 08:22:20;;;;;;;0.10;0.10;;;;;;;27.26;48.94;100577.97;5091382;28;20024;-58
2023/09/27 08:24:46;;;;;;;0.10;0.10;;;;;;;27.50;48.98;100575.72;5084213;28;20088;-58
2023/09/27 08:27:12;;;;;;;0.10;0.10;;;;;;;27.51;47.37;100576.59;5091307;28;20089;-58
2023/09/27 08:29:37;;;;;;;0.10;0.10;;;;;;;27.45;47.39;100575.28;5087106;28;20127;-60
2023/09/27 08:32:05;;;;;;;0.10;0.10;;;;;;;27.32;47.76;100568.38;5070883;28;20021;-60
2023/09/27 08:34:30;;;;;;;0.03;0.03;;;;;;;27.41;48.05;100573.88;5080640;28;20027;-59
2023/09/27 08:36:55;;;;;;;0.10;0.10;;;;;;;27.44;47.77;100576.31;5088901;28;20023;-60
2023/09/27 08:39:21;;;;;;;0.08;0.08;;;;;;;27.72;47.54;100580.91;5082453;28;20503;-59
2023/09/27 08:41:47;;;;;;;0.00;0.00;;;;;;;27.60;47.85;100575.72;5068790;28;20031;-59
2023/09/27 08:44:12;;;;;;;0.00;0.00;;;;;;;27.66;47.75;100570.53;5068768;28;20024;-60
2023/09/27 08:46:40;;;;;;;0.10;0.10;;;;;;;27.65;48.27;100565.19;5068872;28;20091;-59
2023/09/27 08:49:08;;;;;;;0.00;0.00;;;;;;;27.31;49.32;100564.78;5077569;28;20066;-59
2023/09/27 08:51:35;;;;;;;0.00;0.00;;;;;;;27.53;48.69;100563.66;5087638;28;20054;-59
2023/09/27 08:54:01;;;;;;;0.00;0.00;;;;;;;27.29;48.53;100555.00;5079512;28;20041;-60
2023/09/27 08:56:28;;;;;;;0.10;0.10;;;;;;;27.20;49.75;100563.00;5077274;28;20036;-59
2023/09/27 08:58:54;;;;;;;0.00;0.00;;;;;;;27.44;47.79;100562.63;5069597;28;20040;-59
2023/09/27 09:01:19;;;;;;;0.00;0.00;;;;;;;27.59;47.04;100563.94;5071509;28;20472;-59
2023/09/27 09:03:46;;;;;;;0.00;0.00;;;;;;;27.83;45.99;100558.84;5069460;28;20035;-59
2023/09/27 09:06:12;;;;;;;0.00;0.00;;;;;;;28.08;44.65;100555.53;5068662;28;20040;-59
2023/09/27 09:08:41;;;;;;;0.10;0.10;;;;;;;28.18;45.70;100556.38;5069951;28;20089;-59
2023/09/27 09:11:11;;;;;;;0.00;0.00;;;;;;;28.40;45.02;100549.66;5072539;28;20040;-59
2023/09/27 09:14:03;;;;;;;0.00;0.00;;;;;;;28.34;43.93;100540.19;5068853;28;20100;-59
2023/09/27 09:16:39;;;;;;;0.00;0.00;;;;;;;28.45;45.02;100542.72;5069205;28;20032;-59
2023/09/27 09:19:25;;;;;;;0.00;0.00;;;;;;;28.79;44.28;100539.41;5077659;28;20028;-59
2023/09/27 09:21:57;;;;;;;0.00;0.00;;;;;;;28.67;44.66;100546.09;5087482;28;20136;-59
2023/09/27 09:24:22;;;;;;;0.00;0.00;;;;;;;28.66;44.11;100536.16;5071266;28;20443;-59
2023/09/27 09:27:03;;;;;;;0.00;0.00;;;;;;;28.38;43.27;100536.09;5079622;28;20110;-59
2023/09/27 09:29:46;;;;;;;0.00;0.00;;;;;;;28.52;43.63;100533.94;5068258;28;20206;-59
2023/09/27 09:32:32;;;;;;;0.00;0.00;;;;;;;28.97;43.82;100519.25;5070915;28;20036;-59
2023/09/27 09:34:57;;;;;;;0.00;0.00;;;;;;;29.56;42.86;100515.91;5087417;28;20070;-59
2023/09/27 09:37:30;;;;;;;0.00;0.00;;;;;;;29.58;42.45;100512.00;5084298;28;20032;-59
2023/09/27 09:40:13;;;;;;;;;;;;;;;29.48;42.28;100513.09;5080146;28;20020;-58
2023/09/27 09:42:38;;;;;;;0.00;0.00;;;;;;;29.73;41.64;100509.56;5069915;28;19935;-58
2023/09/27 09:45:08;;;;;;;0.00;0.00;;;;;;;29.94;41.82;100506.44;5068661;28;20550;-57
2023/09/27 09:47:37;;;;;;;0.00;0.00;;;;;;;30.11;40.76;100503.66;5071679;28;20087;-58
2023/09/27 09:50:08;;;;;;;0.00;0.00;;;;;;;29.73;40.93;100501.34;5087414;28;20036;-58
2023/09/27 09:52:38;;;;;;;0.00;0.00;;;;;;;30.20;41.69;100502.66;5083728;28;20028;-57
2023/09/27 09:55:07;;;;;;;0.00;0.00;;;;;;;30.25;41.76;100493.97;5086670;28;20040;-58
2023/09/27 09:57:36;;;;;;;0.00;0.00;;;;;;;30.41;41.43;100494.91;5081291;28;20031;-58
2023/09/27 10:00:16;;;;;;;0.00;0.00;;;;;;;30.21;41.30;100501.66;5067572;28;20032;-58
2023/09/27 10:02:58;;;;;;;0.00;0.00;;;;;;;30.62;40.95;100502.75;5067079;28;20036;-58
2023/09/27 10:05:25;;;;;;;0.00;0.00;;;;;;;30.72;38.81;100490.59;5067146;28;20035;-58
2023/09/27 10:07:51;;;;;;;0.00;0.00;;;;;;;30.40;39.79;100484.97;5070041;28;20032;-58
2023/09/27 10:10:21;;;;;;;0.00;0.00;;;;;;;30.32;40.23;100490.44;5071656;28;20072;-58
2023/09/27 10:12:50;;;;;;;0.00;0.00;;;;;;;30.42;41.29;100484.81;5085410;28;20115;-58
2023/09/27 10:15:20;;;;;;;0.00;0.00;;;;;;;30.34;41.04;100482.91;5087732;28;20396;-58
2023/09/27 10:17:46;;;;;;;0.00;0.00;;;;;;;30.30;42.16;100489.72;5069186;28;20023;-58
2023/09/27 10:20:14;;;;;;;0.00;0.00;;;;;;;30.26;41.26;100482.84;5075291;28;20042;-58
2023/09/27 10:22:47;;;;;;;0.00;0.00;;;;;;;30.28;42.08;100472.56;5078262;28;20048;-58
2023/09/27 10:25:28;;;;;;;0.00;0.00;;;;;;;30.34;40.34;100480.16;5084404;28;20105;-58
2023/09/27 10:28:01;;;;;;;0.00;0.00;;;;;;;30.13;42.34;100473.31;5077624;28;20476;-58
2023/09/27 10:30:27;;;;;;;0.00;0.00;;;;;;;29.96;42.50;100475.09;5070250;28;20064;-57
2023/09/27 10:33:14;;;;;;;0.00;0.00;;;;;;;30.12;41.21;100472.44;5068058;28;20056;-57
2023/09/27 10:35:39;;;;;;;0.00;0.00;;;;;;;30.19;42.24;100467.16;5070626;28;20106;-58
2023/09/27 10:38:09;;;;;;;0.00;0.00;;;;;;;29.89;42.55;100462.19;5068238;28;20051;-57
2023/09/27 10:40:45;;;;;;;0.00;0.00;;;;;;;30.37;44.38;100460.59;5075939;28;20057;-58
2023/09/27 10:43:40;;;;;;;0.00;0.00;;;;;;;30.96;41.74;100456.84;5068541;28;20231;-57
2023/09/27 10:46:07;;;;;;;0.00;0.00;;;;;;;31.09;41.20;100454.44;5063013;28;20081;-57
2023/09/27 10:48:42;;;;;;;0.00;0.00;;;;;;;31.55;40.73;100463.97;5067915;28;20562;-59
2023/09/27 10:51:08;;;;;;;0.00;0.00;;;;;;;31.63;40.58;100455.69;5066760;28;20516;-59
2023/09/27 10:53:34;;;;;;;0.00;0.00;;;;;;;31.71;39.56;100444.69;5074190;28;20024;-59
2023/09/27 10:55:59;;;;;;;0.00;0.00;;;;;;;31.76;41.62;100440.34;5086238;28;20028;-59
2023/09/27 10:58:25;;;;;;;0.00;0.00;;;;;;;31.88;39.86;100433.50;5067721;28;20029;-59
2023/09/27 11:00:58;;;;;;;0.00;0.00;;;;;;;31.62;40.51;100437.47;5068928;28;20025;-59
2023/09/27 11:03:24;;;;;;;0.00;0.00;;;;;;;32.07;40.50;100441.34;5066732;28;20112;-59
2023/09/27 11:05:49;;;;;;;0.00;0.00;;;;;;;32.17;38.78;100433.72;5077625;28;20568;-59
2023/09/27 11:08:23;;;;;;;0.00;0.00;;;;;;;32.53;39.38;100423.13;5085024;28;20036;-59
2023/09/27 11:10:51;;;;;;;0.00;0.00;;;;;;;32.91;39.18;100430.50;5079991;28;20059;-59
2023/09/27 11:13:17;;;;;;;0.00;0.00;;;;;;;33.01;38.37;100433.88;5072926;28;20039;-59
2023/09/27 11:15:43;;;;;;;0.00;0.00;;;;;;;32.97;37.35;100427.00;5074372;28;20029;-59
2023/09/27 11:18:09;;;;;;;0.00;0.00;;;;;;;32.84;37.41;100417.56;5072579;28;20020;-59
2023/09/27 11:20:36;;;;;;;0.00;0.00;;;;;;;32.64;38.22;100414.44;5074463;28;20104;-59
2023/09/27 11:23:03;;;;;;;0.00;0.00;;;;;;;32.53;37.59;100406.59;5077354;28;20077;-59